sensor_id;sensor_type;location;lat;lon;timestamp;P1;durP1;ratioP1;P2;durP2;ratioP2
51034;SDS011;37062;52.546;13.230;2023-03-21T00:01:05;9.43;;;7.28;;
51034;SDS011;37062;52.546;13.230;2023-03-21T00:03:33;7.97;;;6.45;;
51034;SDS011;37062;52.546;13.230;2023-03-21T00:06:05;9.02;;;6.90;;
51034;SDS011;37062;52.546;13.230;2023-03-21T00:08:36;9.32;;;6.95;;
51034;SDS011;37062;52.546;13.230;2023-03-21T00:11:06;10.07;;;7.63;;
51034;SDS011;37062;52.546;13.230;2023-03-21T00:13:36;8.65;;;7.00;;
51034;SDS011;37062;52.546;13.230;2023-03-21T00:16:08;12.23;;;8.15;;
51034;SDS011;37062;52.546;13.230;2023-03-21T00:18:54;9.80;;;7.45;;
51034;SDS011;37062;52.546;13.230;2023-03-21T00:21:24;8.88;;;7.78;;
51034;SDS011;37062;52.546;13.230;2023-03-21T00:24:17;13.40;;;7.80;;
51034;SDS011;37062;52.546;13.230;2023-03-21T00:26:47;7.95;;;7.07;;
51034;SDS011;37062;52.546;13.230;2023-03-21T00:29:16;9.32;;;8.23;;
51034;SDS011;37062;52.546;13.230;2023-03-21T00:31:45;9.82;;;8.70;;
51034;SDS011;37062;52.546;13.230;2023-03-21T00:34:13;11.20;;;8.55;;
51034;SDS011;37062;52.546;13.230;2023-03-21T00:36:53;8.73;;;7.68;;
51034;SDS011;37062;52.546;13.230;2023-03-21T00:39:22;9.68;;;7.85;;
51034;SDS011;37062;52.546;13.230;2023-03-21T00:41:50;11.43;;;8.43;;
51034;SDS011;37062;52.546;13.230;2023-03-21T00:44:18;9.50;;;8.38;;
51034;SDS011;37062;52.546;13.230;2023-03-21T00:46:48;12.15;;;8.70;;
51034;SDS011;37062;52.546;13.230;2023-03-21T00:49:33;9.85;;;8.88;;
51034;SDS011;37062;52.546;13.230;2023-03-21T00:52:06;10.38;;;9.05;;
51034;SDS011;37062;52.546;13.230;2023-03-21T00:54:49;9.98;;;8.98;;
51034;SDS011;37062;52.546;13.230;2023-03-21T00:57:18;14.63;;;9.85;;
51034;SDS011;37062;52.546;13.230;2023-03-21T01:00:05;11.75;;;9.93;;
51034;SDS011;37062;52.546;13.230;2023-03-21T01:02:36;10.75;;;9.40;;
51034;SDS011;37062;52.546;13.230;2023-03-21T01:05:10;12.48;;;10.35;;
51034;SDS011;37062;52.546;13.230;2023-03-21T01:08:03;10.85;;;9.38;;
51034;SDS011;37062;52.546;13.230;2023-03-21T01:10:49;9.90;;;8.88;;
51034;SDS011;37062;52.546;13.230;2023-03-21T01:13:19;12.80;;;10.15;;
51034;SDS011;37062;52.546;13.230;2023-03-21T01:15:49;9.80;;;8.77;;
51034;SDS011;37062;52.546;13.230;2023-03-21T01:18:20;11.23;;;9.13;;
51034;SDS011;37062;52.546;13.230;2023-03-21T01:20:50;13.57;;;9.60;;
51034;SDS011;37062;52.546;13.230;2023-03-21T01:23:21;12.60;;;8.98;;
51034;SDS011;37062;52.546;13.230;2023-03-21T01:25:50;12.85;;;9.18;;
51034;SDS011;37062;52.546;13.230;2023-03-21T01:28:19;11.40;;;10.00;;
51034;SDS011;37062;52.546;13.230;2023-03-21T01:30:49;13.60;;;11.63;;
51034;SDS011;37062;52.546;13.230;2023-03-21T01:33:18;12.23;;;10.38;;
51034;SDS011;37062;52.546;13.230;2023-03-21T01:35:47;11.95;;;10.82;;
51034;SDS011;37062;52.546;13.230;2023-03-21T01:38:33;14.18;;;12.75;;
51034;SDS011;37062;52.546;13.230;2023-03-21T01:41:02;16.42;;;13.80;;
51034;SDS011;37062;52.546;13.230;2023-03-21T01:43:44;15.15;;;13.48;;
51034;SDS011;37062;52.546;13.230;2023-03-21T01:46:23;16.60;;;14.80;;
51034;SDS011;37062;52.546;13.230;2023-03-21T01:49:38;19.48;;;15.45;;
51034;SDS011;37062;52.546;13.230;2023-03-21T01:52:18;18.15;;;15.02;;
51034;SDS011;37062;52.546;13.230;2023-03-21T01:55:10;16.92;;;14.88;;
51034;SDS011;37062;52.546;13.230;2023-03-21T01:57:52;17.40;;;15.63;;
51034;SDS011;37062;52.546;13.230;2023-03-21T02:00:41;18.13;;;16.27;;
51034;SDS011;37062;52.546;13.230;2023-03-21T02:03:24;16.63;;;14.90;;
51034;SDS011;37062;52.546;13.230;2023-03-21T02:06:23;17.92;;;16.02;;
51034;SDS011;37062;52.546;13.230;2023-03-21T02:09:06;19.83;;;16.73;;
51034;SDS011;37062;52.546;13.230;2023-03-21T02:11:38;18.45;;;16.58;;
51034;SDS011;37062;52.546;13.230;2023-03-21T02:14:08;18.85;;;16.95;;
51034;SDS011;37062;52.546;13.230;2023-03-21T02:16:59;22.27;;;18.15;;
51034;SDS011;37062;52.546;13.230;2023-03-21T02:19:44;19.67;;;17.55;;
51034;SDS011;37062;52.546;13.230;2023-03-21T02:22:51;21.08;;;17.10;;
51034;SDS011;37062;52.546;13.230;2023-03-21T02:25:53;19.70;;;17.00;;
51034;SDS011;37062;52.546;13.230;2023-03-21T02:28:50;20.45;;;18.20;;
51034;SDS011;37062;52.546;13.230;2023-03-21T02:31:23;19.02;;;17.05;;
51034;SDS011;37062;52.546;13.230;2023-03-21T02:34:20;20.20;;;18.00;;
51034;SDS011;37062;52.546;13.230;2023-03-21T02:37:18;18.70;;;16.33;;
51034;SDS011;37062;52.546;13.230;2023-03-21T02:40:06;19.02;;;16.83;;
51034;SDS011;37062;52.546;13.230;2023-03-21T02:42:49;19.85;;;17.77;;
51034;SDS011;37062;52.546;13.230;2023-03-21T02:45:32;22.00;;;17.45;;
51034;SDS011;37062;52.546;13.230;2023-03-21T02:48:07;22.27;;;18.10;;
51034;SDS011;37062;52.546;13.230;2023-03-21T02:50:54;21.20;;;18.10;;
51034;SDS011;37062;52.546;13.230;2023-03-21T02:53:27;20.05;;;17.92;;
51034;SDS011;37062;52.546;13.230;2023-03-21T02:56:02;21.85;;;18.40;;
51034;SDS011;37062;52.546;13.230;2023-03-21T02:58:42;26.15;;;17.17;;
51034;SDS011;37062;52.546;13.230;2023-03-21T03:01:11;20.60;;;18.40;;
51034;SDS011;37062;52.546;13.230;2023-03-21T03:03:44;19.15;;;17.17;;
51034;SDS011;37062;52.546;13.230;2023-03-21T03:06:14;19.98;;;17.63;;
51034;SDS011;37062;52.546;13.230;2023-03-21T03:08:50;21.98;;;18.13;;
51034;SDS011;37062;52.546;13.230;2023-03-21T03:11:30;21.75;;;19.27;;
51034;SDS011;37062;52.546;13.230;2023-03-21T03:14:05;20.65;;;17.92;;
51034;SDS011;37062;52.546;13.230;2023-03-21T03:17:07;21.52;;;17.98;;
51034;SDS011;37062;52.546;13.230;2023-03-21T03:19:47;21.48;;;18.23;;
51034;SDS011;37062;52.546;13.230;2023-03-21T03:22:46;21.77;;;19.00;;
51034;SDS011;37062;52.546;13.230;2023-03-21T03:25:20;20.73;;;18.52;;
51034;SDS011;37062;52.546;13.230;2023-03-21T03:28:10;20.63;;;17.80;;
51034;SDS011;37062;52.546;13.230;2023-03-21T03:30:42;20.70;;;17.10;;
51034;SDS011;37062;52.546;13.230;2023-03-21T03:33:32;18.70;;;16.80;;
51034;SDS011;37062;52.546;13.230;2023-03-21T03:36:04;22.38;;;18.85;;
51034;SDS011;37062;52.546;13.230;2023-03-21T03:38:44;20.30;;;16.85;;
51034;SDS011;37062;52.546;13.230;2023-03-21T03:41:18;21.75;;;18.63;;
51034;SDS011;37062;52.546;13.230;2023-03-21T03:43:57;20.95;;;17.98;;
51034;SDS011;37062;52.546;13.230;2023-03-21T03:46:33;19.65;;;17.58;;
51034;SDS011;37062;52.546;13.230;2023-03-21T03:49:07;25.90;;;18.80;;
51034;SDS011;37062;52.546;13.230;2023-03-21T03:51:41;22.30;;;18.33;;
51034;SDS011;37062;52.546;13.230;2023-03-21T03:54:30;21.15;;;18.10;;
51034;SDS011;37062;52.546;13.230;2023-03-21T03:57:05;22.85;;;17.85;;
51034;SDS011;37062;52.546;13.230;2023-03-21T03:59:34;24.40;;;19.10;;
51034;SDS011;37062;52.546;13.230;2023-03-21T04:02:16;22.38;;;17.75;;
51034;SDS011;37062;52.546;13.230;2023-03-21T04:04:47;21.92;;;16.38;;
51034;SDS011;37062;52.546;13.230;2023-03-21T04:07:20;21.27;;;18.27;;
51034;SDS011;37062;52.546;13.230;2023-03-21T04:09:51;18.52;;;16.20;;
51034;SDS011;37062;52.546;13.230;2023-03-21T04:12:21;19.70;;;16.75;;
51034;SDS011;37062;52.546;13.230;2023-03-21T04:15:19;21.70;;;16.98;;
51034;SDS011;37062;52.546;13.230;2023-03-21T04:17:54;20.98;;;16.92;;
51034;SDS011;37062;52.546;13.230;2023-03-21T04:20:31;19.45;;;16.42;;
51034;SDS011;37062;52.546;13.230;2023-03-21T04:23:09;18.95;;;16.45;;
51034;SDS011;37062;52.546;13.230;2023-03-21T04:25:42;21.02;;;17.42;;
51034;SDS011;37062;52.546;13.230;2023-03-21T04:28:29;21.27;;;18.40;;
51034;SDS011;37062;52.546;13.230;2023-03-21T04:31:22;21.48;;;17.52;;
51034;SDS011;37062;52.546;13.230;2023-03-21T04:34:11;25.58;;;18.13;;
51034;SDS011;37062;52.546;13.230;2023-03-21T04:36:45;25.00;;;18.52;;
51034;SDS011;37062;52.546;13.230;2023-03-21T04:39:14;23.20;;;19.42;;
51034;SDS011;37062;52.546;13.230;2023-03-21T04:41:46;24.23;;;19.73;;
51034;SDS011;37062;52.546;13.230;2023-03-21T04:44:16;25.77;;;19.45;;
51034;SDS011;37062;52.546;13.230;2023-03-21T04:46:46;20.73;;;17.50;;
51034;SDS011;37062;52.546;13.230;2023-03-21T04:49:15;24.02;;;18.25;;
51034;SDS011;37062;52.546;13.230;2023-03-21T04:51:47;22.83;;;18.55;;
51034;SDS011;37062;52.546;13.230;2023-03-21T04:54:23;22.75;;;18.38;;
51034;SDS011;37062;52.546;13.230;2023-03-21T04:56:51;26.55;;;19.80;;
51034;SDS011;37062;52.546;13.230;2023-03-21T04:59:26;20.83;;;17.98;;
51034;SDS011;37062;52.546;13.230;2023-03-21T05:01:54;20.25;;;17.08;;
51034;SDS011;37062;52.546;13.230;2023-03-21T05:04:24;23.77;;;17.83;;
51034;SDS011;37062;52.546;13.230;2023-03-21T05:06:54;23.70;;;18.23;;
51034;SDS011;37062;52.546;13.230;2023-03-21T05:09:23;25.55;;;19.50;;
51034;SDS011;37062;52.546;13.230;2023-03-21T05:11:51;24.83;;;17.83;;
51034;SDS011;37062;52.546;13.230;2023-03-21T05:14:21;21.48;;;17.77;;
51034;SDS011;37062;52.546;13.230;2023-03-21T05:16:52;23.98;;;19.30;;
51034;SDS011;37062;52.546;13.230;2023-03-21T05:19:22;21.02;;;18.00;;
51034;SDS011;37062;52.546;13.230;2023-03-21T05:22:01;24.40;;;17.63;;
51034;SDS011;37062;52.546;13.230;2023-03-21T05:24:31;25.42;;;20.23;;
51034;SDS011;37062;52.546;13.230;2023-03-21T05:27:00;27.15;;;20.58;;
51034;SDS011;37062;52.546;13.230;2023-03-21T05:29:36;22.13;;;18.33;;
51034;SDS011;37062;52.546;13.230;2023-03-21T05:32:08;23.50;;;19.63;;
51034;SDS011;37062;52.546;13.230;2023-03-21T05:34:36;23.70;;;19.48;;
51034;SDS011;37062;52.546;13.230;2023-03-21T05:37:04;28.27;;;19.67;;
51034;SDS011;37062;52.546;13.230;2023-03-21T05:39:43;22.58;;;18.75;;
51034;SDS011;37062;52.546;13.230;2023-03-21T05:42:25;25.90;;;19.10;;
51034;SDS011;37062;52.546;13.230;2023-03-21T05:44:54;30.85;;;19.27;;
51034;SDS011;37062;52.546;13.230;2023-03-21T05:47:34;27.80;;;20.33;;
51034;SDS011;37062;52.546;13.230;2023-03-21T05:50:03;25.73;;;18.65;;
51034;SDS011;37062;52.546;13.230;2023-03-21T05:52:33;24.42;;;18.48;;
51034;SDS011;37062;52.546;13.230;2023-03-21T05:55:08;25.75;;;19.08;;
51034;SDS011;37062;52.546;13.230;2023-03-21T05:57:37;27.98;;;19.30;;
51034;SDS011;37062;52.546;13.230;2023-03-21T06:00:18;25.17;;;19.48;;
51034;SDS011;37062;52.546;13.230;2023-03-21T06:03:27;26.67;;;20.80;;
51034;SDS011;37062;52.546;13.230;2023-03-21T06:06:05;28.17;;;20.42;;
51034;SDS011;37062;52.546;13.230;2023-03-21T06:08:39;26.35;;;19.35;;
51034;SDS011;37062;52.546;13.230;2023-03-21T06:11:09;27.63;;;19.73;;
51034;SDS011;37062;52.546;13.230;2023-03-21T06:13:45;23.60;;;18.95;;
51034;SDS011;37062;52.546;13.230;2023-03-21T06:16:14;28.30;;;19.67;;
51034;SDS011;37062;52.546;13.230;2023-03-21T06:18:43;28.77;;;20.65;;
51034;SDS011;37062;52.546;13.230;2023-03-21T06:21:34;25.83;;;19.75;;
51034;SDS011;37062;52.546;13.230;2023-03-21T06:24:05;26.48;;;19.77;;
51034;SDS011;37062;52.546;13.230;2023-03-21T06:26:34;27.17;;;20.10;;
51034;SDS011;37062;52.546;13.230;2023-03-21T06:29:02;29.60;;;21.42;;
51034;SDS011;37062;52.546;13.230;2023-03-21T06:31:31;23.90;;;19.30;;
51034;SDS011;37062;52.546;13.230;2023-03-21T06:34:03;27.02;;;20.45;;
51034;SDS011;37062;52.546;13.230;2023-03-21T06:36:31;27.58;;;21.20;;
51034;SDS011;37062;52.546;13.230;2023-03-21T06:39:00;25.25;;;20.67;;
51034;SDS011;37062;52.546;13.230;2023-03-21T06:41:29;26.50;;;19.88;;
51034;SDS011;37062;52.546;13.230;2023-03-21T06:44:01;28.45;;;20.20;;
51034;SDS011;37062;52.546;13.230;2023-03-21T06:46:36;27.15;;;20.08;;
51034;SDS011;37062;52.546;13.230;2023-03-21T06:49:07;26.85;;;19.85;;
51034;SDS011;37062;52.546;13.230;2023-03-21T06:51:35;31.95;;;24.40;;
51034;SDS011;37062;52.546;13.230;2023-03-21T06:54:08;26.65;;;20.33;;
51034;SDS011;37062;52.546;13.230;2023-03-21T06:56:46;31.95;;;22.20;;
51034;SDS011;37062;52.546;13.230;2023-03-21T06:59:21;25.10;;;19.13;;
51034;SDS011;37062;52.546;13.230;2023-03-21T07:02:01;26.15;;;20.77;;
51034;SDS011;37062;52.546;13.230;2023-03-21T07:04:35;29.95;;;21.38;;
51034;SDS011;37062;52.546;13.230;2023-03-21T07:07:08;27.30;;;19.70;;
51034;SDS011;37062;52.546;13.230;2023-03-21T07:09:37;25.70;;;20.55;;
51034;SDS011;37062;52.546;13.230;2023-03-21T07:12:07;25.13;;;20.98;;
51034;SDS011;37062;52.546;13.230;2023-03-21T07:14:47;30.25;;;20.73;;
51034;SDS011;37062;52.546;13.230;2023-03-21T07:17:15;30.05;;;21.27;;
51034;SDS011;37062;52.546;13.230;2023-03-21T07:19:45;25.33;;;20.35;;
51034;SDS011;37062;52.546;13.230;2023-03-21T07:22:17;27.02;;;19.20;;
51034;SDS011;37062;52.546;13.230;2023-03-21T07:24:45;29.17;;;22.20;;
51034;SDS011;37062;52.546;13.230;2023-03-21T07:27:24;29.98;;;21.60;;
51034;SDS011;37062;52.546;13.230;2023-03-21T07:29:52;26.40;;;19.52;;
51034;SDS011;37062;52.546;13.230;2023-03-21T07:32:21;24.70;;;17.90;;
51034;SDS011;37062;52.546;13.230;2023-03-21T07:34:51;24.35;;;19.35;;
51034;SDS011;37062;52.546;13.230;2023-03-21T07:37:19;24.33;;;18.83;;
51034;SDS011;37062;52.546;13.230;2023-03-21T07:39:50;26.65;;;20.58;;
51034;SDS011;37062;52.546;13.230;2023-03-21T07:42:19;22.63;;;18.92;;
51034;SDS011;37062;52.546;13.230;2023-03-21T07:44:48;27.95;;;21.25;;
51034;SDS011;37062;52.546;13.230;2023-03-21T07:47:18;27.35;;;21.38;;
51034;SDS011;37062;52.546;13.230;2023-03-21T07:49:46;27.50;;;20.83;;
51034;SDS011;37062;52.546;13.230;2023-03-21T07:52:15;27.48;;;20.20;;
51034;SDS011;37062;52.546;13.230;2023-03-21T07:54:44;28.60;;;22.00;;
51034;SDS011;37062;52.546;13.230;2023-03-21T07:57:12;28.65;;;20.00;;
51034;SDS011;37062;52.546;13.230;2023-03-21T07:59:40;26.60;;;19.98;;
51034;SDS011;37062;52.546;13.230;2023-03-21T08:02:08;26.88;;;21.40;;
51034;SDS011;37062;52.546;13.230;2023-03-21T08:04:39;32.55;;;23.00;;
51034;SDS011;37062;52.546;13.230;2023-03-21T08:07:08;51.05;;;22.63;;
51034;SDS011;37062;52.546;13.230;2023-03-21T08:09:38;29.35;;;20.75;;
51034;SDS011;37062;52.546;13.230;2023-03-21T08:12:06;40.72;;;21.08;;
51034;SDS011;37062;52.546;13.230;2023-03-21T08:14:34;31.33;;;19.73;;
51034;SDS011;37062;52.546;13.230;2023-03-21T08:17:03;32.22;;;19.42;;
51034;SDS011;37062;52.546;13.230;2023-03-21T08:19:32;32.90;;;20.25;;
51034;SDS011;37062;52.546;13.230;2023-03-21T08:22:00;22.98;;;18.35;;
51034;SDS011;37062;52.546;13.230;2023-03-21T08:24:31;30.95;;;19.52;;
51034;SDS011;37062;52.546;13.230;2023-03-21T08:27:00;26.45;;;19.15;;
51034;SDS011;37062;52.546;13.230;2023-03-21T08:29:29;25.10;;;19.33;;
51034;SDS011;37062;52.546;13.230;2023-03-21T08:31:57;25.20;;;18.85;;
51034;SDS011;37062;52.546;13.230;2023-03-21T08:34:26;27.90;;;18.13;;
51034;SDS011;37062;52.546;13.230;2023-03-21T08:36:54;35.63;;;19.40;;
51034;SDS011;37062;52.546;13.230;2023-03-21T08:39:22;31.33;;;18.08;;
51034;SDS011;37062;52.546;13.230;2023-03-21T08:41:51;45.40;;;30.55;;
51034;SDS011;37062;52.546;13.230;2023-03-21T08:44:21;26.10;;;18.98;;
51034;SDS011;37062;52.546;13.230;2023-03-21T08:46:50;22.65;;;17.25;;
51034;SDS011;37062;52.546;13.230;2023-03-21T08:49:19;23.13;;;18.55;;
51034;SDS011;37062;52.546;13.230;2023-03-21T08:51:47;23.58;;;18.08;;
51034;SDS011;37062;52.546;13.230;2023-03-21T08:54:19;20.88;;;17.23;;
51034;SDS011;37062;52.546;13.230;2023-03-21T08:56:48;21.15;;;15.93;;
51034;SDS011;37062;52.546;13.230;2023-03-21T08:59:16;22.60;;;18.25;;
51034;SDS011;37062;52.546;13.230;2023-03-21T09:01:46;21.63;;;16.40;;
51034;SDS011;37062;52.546;13.230;2023-03-21T09:04:14;20.25;;;16.25;;
51034;SDS011;37062;52.546;13.230;2023-03-21T09:06:44;20.83;;;16.45;;
51034;SDS011;37062;52.546;13.230;2023-03-21T09:09:14;20.88;;;16.27;;
51034;SDS011;37062;52.546;13.230;2023-03-21T09:11:43;20.35;;;16.05;;
51034;SDS011;37062;52.546;13.230;2023-03-21T09:14:12;18.38;;;15.40;;
51034;SDS011;37062;52.546;13.230;2023-03-21T09:16:40;21.63;;;17.17;;
51034;SDS011;37062;52.546;13.230;2023-03-21T09:19:10;22.02;;;17.65;;
51034;SDS011;37062;52.546;13.230;2023-03-21T09:21:38;20.05;;;16.92;;
51034;SDS011;37062;52.546;13.230;2023-03-21T09:24:07;22.60;;;16.20;;
51034;SDS011;37062;52.546;13.230;2023-03-21T09:26:38;20.75;;;16.58;;
51034;SDS011;37062;52.546;13.230;2023-03-21T09:29:06;19.40;;;15.98;;
51034;SDS011;37062;52.546;13.230;2023-03-21T09:31:34;18.00;;;15.13;;
51034;SDS011;37062;52.546;13.230;2023-03-21T09:34:02;20.27;;;15.65;;
51034;SDS011;37062;52.546;13.230;2023-03-21T09:36:32;21.73;;;15.80;;
51034;SDS011;37062;52.546;13.230;2023-03-21T09:39:01;19.50;;;15.45;;
51034;SDS011;37062;52.546;13.230;2023-03-21T09:41:33;20.25;;;14.75;;
51034;SDS011;37062;52.546;13.230;2023-03-21T09:44:13;19.80;;;14.45;;
51034;SDS011;37062;52.546;13.230;2023-03-21T09:46:51;20.13;;;15.75;;
51034;SDS011;37062;52.546;13.230;2023-03-21T09:49:26;18.10;;;14.93;;
51034;SDS011;37062;52.546;13.230;2023-03-21T09:52:00;21.83;;;15.25;;
51034;SDS011;37062;52.546;13.230;2023-03-21T09:54:32;17.83;;;14.25;;
51034;SDS011;37062;52.546;13.230;2023-03-21T09:57:04;22.00;;;16.60;;
51034;SDS011;37062;52.546;13.230;2023-03-21T09:59:41;31.98;;;16.90;;
51034;SDS011;37062;52.546;13.230;2023-03-21T10:02:16;20.40;;;14.45;;
51034;SDS011;37062;52.546;13.230;2023-03-21T10:05:05;19.85;;;15.27;;
51034;SDS011;37062;52.546;13.230;2023-03-21T10:07:43;21.42;;;16.23;;
51034;SDS011;37062;52.546;13.230;2023-03-21T10:10:16;20.92;;;15.73;;
51034;SDS011;37062;52.546;13.230;2023-03-21T10:12:49;27.80;;;16.65;;
51034;SDS011;37062;52.546;13.230;2023-03-21T10:15:20;19.63;;;14.02;;
51034;SDS011;37062;52.546;13.230;2023-03-21T10:17:52;29.55;;;15.35;;
51034;SDS011;37062;52.546;13.230;2023-03-21T10:20:25;31.75;;;18.08;;
51034;SDS011;37062;52.546;13.230;2023-03-21T10:22:57;24.17;;;18.27;;
51034;SDS011;37062;52.546;13.230;2023-03-21T10:25:30;20.80;;;15.45;;
51034;SDS011;37062;52.546;13.230;2023-03-21T10:28:01;20.73;;;15.13;;
51034;SDS011;37062;52.546;13.230;2023-03-21T10:30:34;16.40;;;13.90;;
51034;SDS011;37062;52.546;13.230;2023-03-21T10:33:07;19.33;;;14.73;;
51034;SDS011;37062;52.546;13.230;2023-03-21T10:35:40;18.98;;;13.45;;
51034;SDS011;37062;52.546;13.230;2023-03-21T10:38:14;16.55;;;13.05;;
51034;SDS011;37062;52.546;13.230;2023-03-21T10:40:44;20.00;;;13.75;;
51034;SDS011;37062;52.546;13.230;2023-03-21T10:43:17;22.30;;;14.15;;
51034;SDS011;37062;52.546;13.230;2023-03-21T10:45:47;18.58;;;12.90;;
51034;SDS011;37062;52.546;13.230;2023-03-21T10:48:15;17.92;;;15.43;;
51034;SDS011;37062;52.546;13.230;2023-03-21T10:50:45;14.15;;;12.18;;
51034;SDS011;37062;52.546;13.230;2023-03-21T10:53:20;15.65;;;12.32;;
51034;SDS011;37062;52.546;13.230;2023-03-21T10:55:54;16.52;;;12.05;;
51034;SDS011;37062;52.546;13.230;2023-03-21T10:58:25;17.30;;;12.27;;
51034;SDS011;37062;52.546;13.230;2023-03-21T11:00:56;15.70;;;11.65;;
51034;SDS011;37062;52.546;13.230;2023-03-21T11:03:29;14.05;;;12.55;;
51034;SDS011;37062;52.546;13.230;2023-03-21T11:06:00;14.68;;;11.48;;
51034;SDS011;37062;52.546;13.230;2023-03-21T11:08:37;13.85;;;10.80;;
51034;SDS011;37062;52.546;13.230;2023-03-21T11:11:08;13.85;;;10.35;;
51034;SDS011;37062;52.546;13.230;2023-03-21T11:13:39;18.88;;;11.50;;
51034;SDS011;37062;52.546;13.230;2023-03-21T11:16:09;14.45;;;11.13;;
51034;SDS011;37062;52.546;13.230;2023-03-21T11:18:40;14.50;;;10.88;;
51034;SDS011;37062;52.546;13.230;2023-03-21T11:21:10;12.15;;;10.20;;
51034;SDS011;37062;52.546;13.230;2023-03-21T11:23:42;13.52;;;11.48;;
51034;SDS011;37062;52.546;13.230;2023-03-21T11:26:16;13.35;;;11.23;;
51034;SDS011;37062;52.546;13.230;2023-03-21T11:28:49;12.63;;;10.65;;
51034;SDS011;37062;52.546;13.230;2023-03-21T11:31:18;13.65;;;10.40;;
51034;SDS011;37062;52.546;13.230;2023-03-21T11:33:49;13.68;;;10.45;;
51034;SDS011;37062;52.546;13.230;2023-03-21T11:36:25;13.95;;;9.65;;
51034;SDS011;37062;52.546;13.230;2023-03-21T11:39:11;13.60;;;10.38;;
51034;SDS011;37062;52.546;13.230;2023-03-21T11:41:50;11.48;;;10.27;;
51034;SDS011;37062;52.546;13.230;2023-03-21T11:47:09;13.45;;;9.70;;
51034;SDS011;37062;52.546;13.230;2023-03-21T11:49:37;13.38;;;10.50;;
51034;SDS011;37062;52.546;13.230;2023-03-21T11:52:10;13.73;;;10.32;;
51034;SDS011;37062;52.546;13.230;2023-03-21T11:54:55;14.98;;;10.70;;
51034;SDS011;37062;52.546;13.230;2023-03-21T11:57:34;11.93;;;9.30;;
51034;SDS011;37062;52.546;13.230;2023-03-21T12:00:10;12.43;;;10.27;;
51034;SDS011;37062;52.546;13.230;2023-03-21T12:02:53;12.85;;;10.40;;
51034;SDS011;37062;52.546;13.230;2023-03-21T12:05:37;11.00;;;9.60;;
51034;SDS011;37062;52.546;13.230;2023-03-21T12:08:16;16.80;;;10.57;;
51034;SDS011;37062;52.546;13.230;2023-03-21T12:10:57;13.50;;;9.80;;
51034;SDS011;37062;52.546;13.230;2023-03-21T12:13:34;11.50;;;9.68;;
51034;SDS011;37062;52.546;13.230;2023-03-21T12:16:14;10.70;;;9.40;;
51034;SDS011;37062;52.546;13.230;2023-03-21T12:18:57;17.05;;;10.63;;
51034;SDS011;37062;52.546;13.230;2023-03-21T12:21:33;16.60;;;14.10;;
51034;SDS011;37062;52.546;13.230;2023-03-21T12:24:10;14.27;;;11.48;;
51034;SDS011;37062;52.546;13.230;2023-03-21T12:26:46;12.90;;;9.40;;
51034;SDS011;37062;52.546;13.230;2023-03-21T12:29:30;13.75;;;9.82;;
51034;SDS011;37062;52.546;13.230;2023-03-21T12:32:16;11.55;;;9.23;;
51034;SDS011;37062;52.546;13.230;2023-03-21T12:37:45;14.57;;;9.07;;
51034;SDS011;37062;52.546;13.230;2023-03-21T12:40:28;13.95;;;8.85;;
51034;SDS011;37062;52.546;13.230;2023-03-21T12:43:20;10.00;;;7.82;;
51034;SDS011;37062;52.546;13.230;2023-03-21T12:45:54;11.27;;;9.25;;
51034;SDS011;37062;52.546;13.230;2023-03-21T12:48:31;14.48;;;9.50;;
51034;SDS011;37062;52.546;13.230;2023-03-21T12:51:07;14.52;;;9.02;;
51034;SDS011;37062;52.546;13.230;2023-03-21T12:53:46;11.75;;;7.78;;
51034;SDS011;37062;52.546;13.230;2023-03-21T12:56:19;14.05;;;8.75;;
51034;SDS011;37062;52.546;13.230;2023-03-21T12:58:53;12.10;;;8.38;;
51034;SDS011;37062;52.546;13.230;2023-03-21T13:01:26;16.98;;;8.45;;
51034;SDS011;37062;52.546;13.230;2023-03-21T13:04:04;14.90;;;8.23;;
51034;SDS011;37062;52.546;13.230;2023-03-21T13:06:36;12.82;;;8.20;;
51034;SDS011;37062;52.546;13.230;2023-03-21T13:09:05;9.85;;;7.93;;
51034;SDS011;37062;52.546;13.230;2023-03-21T13:11:39;13.70;;;7.35;;
51034;SDS011;37062;52.546;13.230;2023-03-21T13:14:12;11.57;;;8.85;;
51034;SDS011;37062;52.546;13.230;2023-03-21T13:16:44;12.82;;;8.68;;
51034;SDS011;37062;52.546;13.230;2023-03-21T13:19:22;10.95;;;8.20;;
51034;SDS011;37062;52.546;13.230;2023-03-21T13:21:56;13.85;;;8.75;;
51034;SDS011;37062;52.546;13.230;2023-03-21T13:24:31;16.08;;;9.10;;
51034;SDS011;37062;52.546;13.230;2023-03-21T13:27:05;12.43;;;8.25;;
51034;SDS011;37062;52.546;13.230;2023-03-21T13:29:45;10.57;;;8.18;;
51034;SDS011;37062;52.546;13.230;2023-03-21T13:32:19;10.32;;;6.72;;
51034;SDS011;37062;52.546;13.230;2023-03-21T13:34:55;10.25;;;7.88;;
51034;SDS011;37062;52.546;13.230;2023-03-21T13:37:25;7.97;;;7.00;;
51034;SDS011;37062;52.546;13.230;2023-03-21T13:40:02;9.80;;;7.95;;
51034;SDS011;37062;52.546;13.230;2023-03-21T13:42:41;10.35;;;8.80;;
51034;SDS011;37062;52.546;13.230;2023-03-21T13:45:22;11.48;;;7.90;;
51034;SDS011;37062;52.546;13.230;2023-03-21T13:47:53;13.18;;;8.10;;
51034;SDS011;37062;52.546;13.230;2023-03-21T13:53:10;11.80;;;8.57;;
51034;SDS011;37062;52.546;13.230;2023-03-21T13:55:56;10.10;;;7.88;;
51034;SDS011;37062;52.546;13.230;2023-03-21T13:58:31;9.70;;;8.15;;
51034;SDS011;37062;52.546;13.230;2023-03-21T14:03:55;14.80;;;8.55;;
51034;SDS011;37062;52.546;13.230;2023-03-21T14:06:31;11.30;;;8.90;;
51034;SDS011;37062;52.546;13.230;2023-03-21T14:09:06;13.15;;;8.27;;
51034;SDS011;37062;52.546;13.230;2023-03-21T14:11:34;10.45;;;7.72;;
51034;SDS011;37062;52.546;13.230;2023-03-21T14:14:09;13.63;;;8.82;;
51034;SDS011;37062;52.546;13.230;2023-03-21T14:16:39;10.35;;;7.90;;
51034;SDS011;37062;52.546;13.230;2023-03-21T14:19:09;10.32;;;7.65;;
51034;SDS011;37062;52.546;13.230;2023-03-21T14:21:44;9.20;;;7.53;;
51034;SDS011;37062;52.546;13.230;2023-03-21T14:24:15;15.50;;;8.40;;
51034;SDS011;37062;52.546;13.230;2023-03-21T14:26:46;15.43;;;8.68;;
51034;SDS011;37062;52.546;13.230;2023-03-21T14:29:19;10.32;;;8.00;;
51034;SDS011;37062;52.546;13.230;2023-03-21T14:31:53;9.82;;;7.53;;
51034;SDS011;37062;52.546;13.230;2023-03-21T14:34:22;13.43;;;7.78;;
51034;SDS011;37062;52.546;13.230;2023-03-21T14:36:53;8.80;;;7.13;;
51034;SDS011;37062;52.546;13.230;2023-03-21T14:39:26;8.95;;;7.13;;
51034;SDS011;37062;52.546;13.230;2023-03-21T14:41:59;22.48;;;8.68;;
51034;SDS011;37062;52.546;13.230;2023-03-21T14:44:31;9.15;;;6.50;;
51034;SDS011;37062;52.546;13.230;2023-03-21T14:47:20;9.20;;;6.82;;
51034;SDS011;37062;52.546;13.230;2023-03-21T14:49:50;12.05;;;6.63;;
51034;SDS011;37062;52.546;13.230;2023-03-21T14:52:20;7.82;;;7.03;;
51034;SDS011;37062;52.546;13.230;2023-03-21T14:54:51;8.77;;;6.97;;
51034;SDS011;37062;52.546;13.230;2023-03-21T14:57:21;8.77;;;6.85;;
51034;SDS011;37062;52.546;13.230;2023-03-21T14:59:53;7.68;;;6.80;;
51034;SDS011;37062;52.546;13.230;2023-03-21T15:02:27;13.20;;;9.68;;
51034;SDS011;37062;52.546;13.230;2023-03-21T15:05:05;8.70;;;7.80;;
51034;SDS011;37062;52.546;13.230;2023-03-21T15:07:36;8.85;;;7.82;;